Terminal Aerodrome Forecast
Issued by NWS Pocatello, ID

Home | Current Version | Previous Version | Text Only | Print | Product List | Glossary On
Versions: 1 2 3 4 5 6 7 8 9 10 11 12 13 14 15
000
FTUS45 KPIH 060520
TAFPIH
TAF
KPIH 060520Z 0606/0706 23011KT P6SM FEW100 BKN200
     FM062000 26010G15KT P6SM VCTS BKN060CB BKN110
     FM070200 23011KT P6SM VCSH SCT030 OVC050=

USA.gov is the U.S. government's official web portal to all federal, state and local government web resources and services.